createdAt,value
2022-09-30T00:00:22.711Z,8.59
2022-09-30T00:05:24.389Z,8.66
2022-09-30T00:10:26.417Z,8.72
2022-09-30T00:15:28.527Z,8.76
2022-09-30T00:20:30.875Z,8.81
2022-09-30T00:25:32.917Z,8.83
2022-09-30T00:30:34.832Z,8.88
2022-09-30T00:35:43.535Z,8.93
2022-09-30T00:40:46.008Z,9.01
2022-09-30T00:45:58.006Z,9.04
2022-09-30T00:51:02.779Z,9.02
2022-09-30T00:56:17.237Z,9.02
2022-09-30T01:01:19.725Z,9.03
2022-09-30T01:06:23.299Z,9.05
2022-09-30T01:11:26.859Z,9.07
2022-09-30T01:17:06.829Z,9.07
2022-09-30T01:22:23.870Z,9.06
2022-09-30T01:27:36.856Z,9.10
2022-09-30T01:32:45.213Z,9.12
2022-09-30T01:37:56.059Z,9.11
2022-09-30T01:43:11.776Z,9.13
2022-09-30T01:48:26.109Z,9.17
2022-09-30T01:53:39.634Z,9.23
2022-09-30T01:58:51.794Z,9.30
2022-09-30T02:04:01.908Z,9.34
2022-09-30T02:09:13.667Z,9.37
2022-09-30T02:14:28.331Z,9.38
2022-09-30T02:19:37.986Z,9.41
2022-09-30T02:24:41.186Z,9.47
2022-09-30T02:29:47.696Z,9.54
2022-09-30T02:34:55.498Z,9.56
2022-09-30T02:40:13.836Z,9.57
2022-09-30T02:45:22.705Z,9.65
2022-09-30T02:51:23.362Z,9.79
2022-09-30T02:56:41.303Z,9.93
2022-09-30T03:01:47.416Z,9.96
2022-09-30T03:06:49.675Z,9.95
2022-09-30T03:11:55.624Z,9.97
2022-09-30T03:17:36.644Z,10.03
2022-09-30T03:22:54.744Z,10.09
2022-09-30T03:28:22.876Z,10.16
2022-09-30T03:33:48.107Z,10.18
2022-09-30T03:39:13.305Z,10.14
2022-09-30T03:44:56.219Z,10.07
2022-09-30T03:50:02.861Z,10.03
2022-09-30T03:55:08.726Z,9.99
2022-09-30T04:00:13.281Z,10.00
2022-09-30T04:05:15.111Z,10.01
2022-09-30T04:10:16.936Z,10.04
2022-09-30T04:15:19.364Z,10.05
2022-09-30T04:20:21.065Z,10.06
2022-09-30T04:25:22.822Z,10.12
2022-09-30T04:30:27.172Z,10.13
2022-09-30T04:35:30.222Z,10.16
2022-09-30T04:40:32.278Z,10.19
2022-09-30T04:45:57.104Z,10.22
2022-09-30T04:51:00.501Z,10.25
2022-09-30T04:56:02.377Z,10.27
2022-09-30T05:01:13.187Z,10.28
2022-09-30T05:06:14.998Z,10.29
2022-09-30T05:11:19.290Z,10.32
2022-09-30T05:16:22.117Z,10.35
2022-09-30T05:21:23.806Z,10.43
2022-09-30T05:26:25.849Z,10.51
2022-09-30T05:31:28.043Z,10.55
2022-09-30T05:36:34.179Z,10.59
2022-09-30T05:41:36.044Z,10.63
2022-09-30T05:46:37.946Z,10.69
2022-09-30T05:51:40.775Z,10.79
2022-09-30T05:56:43.461Z,10.89
2022-09-30T06:01:45.693Z,10.96
2022-09-30T06:06:47.844Z,11.02
2022-09-30T06:11:49.570Z,11.11
2022-09-30T06:16:52.067Z,11.19
2022-09-30T06:21:54.079Z,11.21
2022-09-30T06:26:55.890Z,11.26
2022-09-30T06:31:58.146Z,11.30
2022-09-30T06:37:00.085Z,11.34
2022-09-30T06:42:01.999Z,11.35
2022-09-30T06:47:04.696Z,11.43
2022-09-30T06:52:09.573Z,11.43
2022-09-30T06:57:11.307Z,11.40
2022-09-30T07:02:13.443Z,11.40
2022-09-30T07:07:15.577Z,11.37
2022-09-30T07:12:18.240Z,11.32
2022-09-30T07:17:20.083Z,11.36
2022-09-30T07:22:36.045Z,11.42
2022-09-30T07:27:51.617Z,11.58
2022-09-30T07:32:53.715Z,11.64
2022-09-30T07:37:55.414Z,11.70
2022-09-30T07:42:58.504Z,11.72
2022-09-30T07:48:00.436Z,11.81
2022-09-30T07:53:09.052Z,11.94
2022-09-30T07:58:17.508Z,11.96
2022-09-30T08:03:19.310Z,12.01
2022-09-30T08:08:21.114Z,12.03
2022-09-30T08:13:23.365Z,12.04
2022-09-30T08:18:36.099Z,12.06
2022-09-30T08:23:44.522Z,12.09
2022-09-30T08:28:48.450Z,12.10
2022-09-30T08:33:50.950Z,12.05
2022-09-30T08:38:53.510Z,12.00
2022-09-30T08:44:16.434Z,12.09
2022-09-30T08:49:36.854Z,12.22
2022-09-30T08:54:43.514Z,12.29
2022-09-30T08:59:48.973Z,12.28
2022-09-30T09:05:00.789Z,12.27
2022-09-30T09:10:16.513Z,12.24
2022-09-30T09:15:37.753Z,12.22
2022-09-30T09:20:47.467Z,12.28
2022-09-30T09:25:53.059Z,12.42
2022-09-30T09:30:58.894Z,12.55
2022-09-30T09:36:03.600Z,12.63
2022-09-30T09:41:11.303Z,12.69
2022-09-30T09:46:28.142Z,12.82
2022-09-30T09:51:36.101Z,12.81
2022-09-30T09:56:38.007Z,12.83
2022-09-30T10:01:50.566Z,12.89
2022-09-30T10:06:54.431Z,12.94
2022-09-30T10:12:08.094Z,13.07
2022-09-30T10:17:22.178Z,13.14
2022-09-30T10:22:32.373Z,13.21
2022-09-30T10:27:36.935Z,13.25
2022-09-30T10:32:38.860Z,13.16
2022-09-30T10:37:53.219Z,13.25
2022-09-30T10:42:56.664Z,13.39
2022-09-30T10:48:14.275Z,13.43
2022-09-30T10:53:30.918Z,13.51
2022-09-30T10:58:48.605Z,13.76
2022-09-30T11:04:02.789Z,13.86
2022-09-30T11:09:33.456Z,13.89
2022-09-30T11:14:56.902Z,13.83
2022-09-30T11:20:10.693Z,13.71
2022-09-30T11:25:19.753Z,13.69
2022-09-30T11:30:38.034Z,13.76
2022-09-30T11:35:46.259Z,13.82
2022-09-30T11:40:53.702Z,13.90
2022-09-30T11:46:24.138Z,13.97
2022-09-30T11:51:32.203Z,14.04
2022-09-30T11:56:51.006Z,14.05
2022-09-30T12:01:54.568Z,14.07
2022-09-30T12:06:58.450Z,14.03
2022-09-30T12:12:02.203Z,14.04
2022-09-30T12:17:12.001Z,13.99
2022-09-30T12:22:41.810Z,13.79
2022-09-30T12:28:40.431Z,13.86
2022-09-30T12:34:09.173Z,13.96
2022-09-30T12:39:25.603Z,14.01
2022-09-30T12:44:51.331Z,14.10
2022-09-30T12:49:56.301Z,14.18
2022-09-30T12:55:36.001Z,14.19
2022-09-30T13:00:58.634Z,14.25
2022-09-30T13:06:06.668Z,14.22
2022-09-30T13:12:00.997Z,14.14
2022-09-30T13:17:25.026Z,14.17
2022-09-30T13:22:41.781Z,14.24
2022-09-30T13:27:45.636Z,14.29
2022-09-30T13:33:05.297Z,14.38
2022-09-30T13:38:13.560Z,14.41
2022-09-30T13:43:42.648Z,14.42
2022-09-30T13:49:19.622Z,14.45
2022-09-30T13:54:35.304Z,14.46
2022-09-30T13:59:59.196Z,14.39
2022-09-30T14:05:36.875Z,14.19
2022-09-30T14:11:11.899Z,14.25
2022-09-30T14:16:35.428Z,14.34
2022-09-30T14:21:49.723Z,14.21
2022-09-30T14:27:16.845Z,14.00
2022-09-30T14:32:46.316Z,13.93
2022-09-30T14:38:01.957Z,13.81
2022-09-30T14:43:13.441Z,13.60
2022-09-30T14:48:20.487Z,13.47
2022-09-30T14:53:28.973Z,13.47
2022-09-30T14:58:42.693Z,13.50
2022-09-30T15:04:15.102Z,13.48
2022-09-30T15:09:34.646Z,13.41
2022-09-30T15:14:50.747Z,13.30
2022-09-30T15:19:55.882Z,13.20
2022-09-30T15:25:04.892Z,13.12
2022-09-30T15:30:15.766Z,12.99
2022-09-30T15:35:21.905Z,12.87
2022-09-30T15:40:46.362Z,12.87
2022-09-30T15:45:50.652Z,12.84
2022-09-30T15:50:56.233Z,12.69
2022-09-30T15:56:22.601Z,12.50
2022-09-30T16:01:46.716Z,12.51
2022-09-30T16:06:58.794Z,12.46
2022-09-30T16:12:08.834Z,12.39
2022-09-30T16:17:19.533Z,12.24
2022-09-30T16:22:33.810Z,12.10
2022-09-30T16:27:36.079Z,12.00
2022-09-30T16:32:41.883Z,11.89
2022-09-30T16:37:44.425Z,11.91
2022-09-30T16:42:47.046Z,11.92
2022-09-30T16:47:50.614Z,11.90
2022-09-30T16:52:52.813Z,11.94
2022-09-30T16:57:59.620Z,12.02
2022-09-30T17:03:01.496Z,12.08
2022-09-30T17:08:03.485Z,12.12
2022-09-30T17:13:06.383Z,12.14
2022-09-30T17:18:10.474Z,12.16
2022-09-30T17:23:13.113Z,12.08
2022-09-30T17:28:16.063Z,12.00
2022-09-30T17:33:19.765Z,11.99
2022-09-30T17:38:21.810Z,11.87
2022-09-30T17:43:25.864Z,11.85
2022-09-30T17:48:28.048Z,11.89
2022-09-30T17:53:31.097Z,11.96
2022-09-30T17:58:33.527Z,12.01
2022-09-30T18:03:36.669Z,11.93
2022-09-30T18:08:41.995Z,11.83
2022-09-30T18:13:57.865Z,11.78
2022-09-30T18:19:16.122Z,11.72
2022-09-30T18:24:38.493Z,11.67
2022-09-30T18:29:42.558Z,11.64
2022-09-30T18:34:44.754Z,11.56
2022-09-30T18:39:46.991Z,11.52
2022-09-30T18:44:51.144Z,11.58
2022-09-30T18:49:53.225Z,11.65
2022-09-30T18:54:55.357Z,11.63
2022-09-30T18:59:58.100Z,11.61
2022-09-30T19:05:09.023Z,11.58
2022-09-30T19:10:18.572Z,11.54
2022-09-30T19:15:21.977Z,11.55
2022-09-30T19:20:25.617Z,11.53
2022-09-30T19:25:27.737Z,11.58
2022-09-30T19:30:29.759Z,11.60
2022-09-30T19:35:39.512Z,11.59
2022-09-30T19:40:43.736Z,11.64
2022-09-30T19:45:55.169Z,11.68
2022-09-30T19:51:02.628Z,11.70
2022-09-30T19:56:17.697Z,11.75
2022-09-30T20:01:25.390Z,11.79
2022-09-30T20:06:28.451Z,11.82
2022-09-30T20:11:36.194Z,11.83
2022-09-30T20:16:38.947Z,11.82
2022-09-30T20:21:44.109Z,11.76
2022-09-30T20:26:47.282Z,11.76
2022-09-30T20:31:50.500Z,11.80
2022-09-30T20:36:52.461Z,11.82
2022-09-30T20:41:55.988Z,11.83
2022-09-30T20:46:58.386Z,11.84
2022-09-30T20:52:02.868Z,11.83
2022-09-30T20:57:08.158Z,11.83
2022-09-30T21:02:14.033Z,11.82
2022-09-30T21:07:16.042Z,11.77
2022-09-30T21:12:20.285Z,11.76
2022-09-30T21:17:22.176Z,11.77
2022-09-30T21:22:24.158Z,11.78
2022-09-30T21:27:25.872Z,11.76
2022-09-30T21:32:29.016Z,11.71
2022-09-30T21:37:31.004Z,11.70
2022-09-30T21:42:32.763Z,11.68
2022-09-30T21:47:34.427Z,11.64
2022-09-30T21:52:38.175Z,11.60
2022-09-30T21:57:40.205Z,11.60
2022-09-30T22:02:42.058Z,11.60
2022-09-30T22:07:44.125Z,11.60
2022-09-30T22:12:46.431Z,11.58
2022-09-30T22:17:51.322Z,11.62
2022-09-30T22:22:53.438Z,11.69
2022-09-30T22:27:55.465Z,11.71
2022-09-30T22:33:21.978Z,11.73
2022-09-30T22:38:27.943Z,11.66
2022-09-30T22:43:32.137Z,11.59
2022-09-30T22:48:34.970Z,11.60
2022-09-30T22:53:38.806Z,11.61
2022-09-30T22:58:40.743Z,11.64
2022-09-30T23:03:43.461Z,11.70
2022-09-30T23:08:46.280Z,11.77
2022-09-30T23:13:48.048Z,11.80
2022-09-30T23:18:59.595Z,11.80
2022-09-30T23:24:51.327Z,11.80
2022-09-30T23:29:54.989Z,11.73
2022-09-30T23:34:56.749Z,11.64
2022-09-30T23:39:58.643Z,11.56
2022-09-30T23:45:00.444Z,11.50
2022-09-30T23:50:02.326Z,11.44
2022-09-30T23:55:04.733Z,11.39
